Date,TemperatureHighF,TemperatureAvgF,TemperatureLowF,DewpointHighF,DewpointAvgF,DewpointLowF,HumidityHigh,HumidityAvg,HumidityLow,PressureMaxIn,PressureMinIn,WindSpeedMaxMPH,WindSpeedAvgMPH,GustSpeedMaxMPH,PrecipitationSumIn
2012-12-1,38.5,34.3,31.6,36.7,30.2,23.7,95,85,70,30.58,30.45,0,0,0,0.00
2012-12-2,51.4,42.4,34.0,48.2,40.8,32.9,98,94,83,30.45,30.11,0,-18,0,0.00
2012-12-3,58.5,48.0,37.2,50.9,44.2,35.4,99,88,65,30.30,30.09,0,0,0,0.00
2012-12-4,54.9,45.7,32.7,54.3,45.1,31.6,99,98,94,30.31,30.01,0,0,0,0.00
2012-12-5,54.1,46.7,32.7,52.0,39.4,20.5,99,77,54,30.20,29.90,0,-4,0,0.00
2012-12-6,41.0,31.0,22.5,23.5,20.2,18.0,87,65,45,30.36,30.19,0,0,0,0.00
2012-12-7,42.4,34.3,21.6,41.2,32.2,18.9,98,92,78,30.31,30.04,0,0,0,0.00
2012-12-8,49.8,45.6,41.7,49.1,45.1,41.2,99,98,95,30.04,29.87,0,0,0,0.00
2012-12-9,47.5,43.2,40.1,47.3,41.2,37.9,99,93,80,30.26,30.00,0,-7,0,0.00
2012-12-10,56.1,50.5,43.0,56.1,50.4,42.4,100,100,98,30.08,29.55,0,-4,0,0.00
2012-12-11,54.1,42.5,34.0,54.1,36.8,26.8,100,81,57,30.20,29.56,0,0,0,0.00
2012-12-12,42.3,34.4,28.9,30.4,27.2,25.3,89,75,56,30.45,30.20,0,0,0,0.00
2012-12-13,45.7,33.6,26.1,32.4,27.1,23.7,91,78,50,30.49,30.32,0,-4,0,0.00
2012-12-14,47.1,34.1,21.7,33.8,26.3,20.3,97,75,51,30.33,30.12,0,-7,0,0.00
2012-12-15,46.6,34.4,25.7,33.3,28.3,23.5,95,80,53,30.33,30.22,0,-7,0,0.00
2012-12-16,39.9,37.7,35.2,37.9,34.9,30.9,98,90,82,30.28,29.97,0,-10,0,0.00
2012-12-17,39.4,37.7,36.1,38.8,37.1,35.6,99,98,96,29.98,29.70,0,-4,0,0.00
2012-12-18,46.2,43.7,38.8,46.0,43.3,38.7,99,98,88,29.71,29.46,0,-4,0,0.00
2012-12-19,48.0,41.2,36.0,39.4,33.0,28.2,92,73,55,30.09,29.55,0,-4,0,0.00
2012-12-20,45.0,36.2,28.9,34.3,29.5,25.7,89,77,61,30.23,30.09,0,-5,0,0.00
2012-12-23,41.2,35.8,29.8,28.8,24.8,21.6,78,64,56,29.94,29.83,0,-4,0,0.00
2012-12-24,40.3,33.0,26.6,29.3,24.1,20.3,93,70,56,30.10,29.93,0,-10,0,0.00
2012-12-25,37.4,32.1,28.2,34.3,29.6,23.2,97,90,80,30.24,29.93,0,0,0,0.00
2012-12-26,35.2,29.6,22.5,33.8,25.3,17.2,97,84,73,30.30,29.62,0,-7,0,0.00
2012-12-27,37.9,35.4,30.0,37.0,33.0,23.4,97,91,76,29.75,29.25,0,-14,0,0.00
2012-12-28,38.1,30.9,25.5,27.5,23.8,20.5,88,75,62,30.08,29.75,0,-7,0,0.00
2012-12-29,34.0,28.9,23.4,30.9,27.2,21.4,97,93,85,30.06,29.44,0,-7,0,0.00
2012-12-30,30.7,26.9,22.3,30.0,24.9,18.7,97,92,86,30.10,29.51,0,-10,0,0.00
2012-12-31,32.0,26.6,18.9,29.8,24.5,16.3,96,92,87,30.15,29.86,0,0,0,0.00